createdAt,value
2022-08-17T00:00:18.265Z,8.73
2022-08-17T00:03:00.032Z,6.28
2022-08-17T00:05:36.664Z,7.03
2022-08-17T00:08:03.813Z,7.07
2022-08-17T00:10:32.262Z,9.02
2022-08-17T00:12:59.756Z,6.70
2022-08-17T00:15:26.572Z,7.88
2022-08-17T00:17:53.267Z,7.27
2022-08-17T00:20:20.489Z,8.02
2022-08-17T00:23:12.133Z,7.30
2022-08-17T00:25:40.786Z,6.22
2022-08-17T00:28:07.711Z,7.38
2022-08-17T00:30:52.880Z,6.80
2022-08-17T00:33:25.954Z,6.78
2022-08-17T00:35:53.235Z,6.88
2022-08-17T00:38:20.307Z,7.05
2022-08-17T00:40:59.294Z,7.38
2022-08-17T00:43:45.310Z,7.13
2022-08-17T00:46:33.881Z,7.30
2022-08-17T00:49:00.580Z,8.10
2022-08-17T00:51:50.507Z,7.35
2022-08-17T00:54:24.765Z,6.28
2022-08-17T00:56:59.492Z,6.97
2022-08-17T00:59:30.929Z,7.40
2022-08-17T01:01:58.241Z,7.82
2022-08-17T01:04:25.847Z,7.38
2022-08-17T01:06:53.250Z,8.25
2022-08-17T01:09:19.953Z,7.27
2022-08-17T01:11:52.066Z,7.05
2022-08-17T01:14:21.431Z,7.72
2022-08-17T01:16:50.548Z,7.78
2022-08-17T01:19:20.287Z,6.85
2022-08-17T01:22:01.455Z,7.47
2022-08-17T01:24:28.268Z,6.72
2022-08-17T01:26:56.670Z,7.32
2022-08-17T01:29:24.800Z,8.18
2022-08-17T01:31:55.872Z,7.55
2022-08-17T01:34:22.774Z,6.87
2022-08-17T01:36:54.828Z,7.95
2022-08-17T01:39:27.096Z,6.63
2022-08-17T01:41:58.973Z,8.55
2022-08-17T01:44:27.281Z,7.13
2022-08-17T01:46:54.549Z,6.67
2022-08-17T01:49:21.377Z,6.95
2022-08-17T01:51:48.491Z,8.68
2022-08-17T01:54:18.083Z,6.63
2022-08-17T01:56:47.862Z,6.18
2022-08-17T01:59:16.162Z,7.03
2022-08-17T02:01:43.678Z,6.63
2022-08-17T02:04:10.889Z,7.03
2022-08-17T02:06:44.818Z,7.40
2022-08-17T02:09:16.439Z,7.70
2022-08-17T02:11:43.855Z,8.30
2022-08-17T02:14:12.256Z,7.55
2022-08-17T02:16:40.946Z,7.82
2022-08-17T02:19:09.970Z,8.48
2022-08-17T02:21:38.086Z,7.57
2022-08-17T02:24:06.974Z,7.63
2022-08-17T02:26:33.629Z,6.78
2022-08-17T02:29:00.291Z,7.13
2022-08-17T02:31:26.938Z,7.10
2022-08-17T02:34:03.487Z,7.22
2022-08-17T02:36:32.323Z,7.27
2022-08-17T02:39:00.753Z,7.90
2022-08-17T02:41:27.783Z,6.72
2022-08-17T02:43:54.392Z,7.82
2022-08-17T02:46:21.112Z,6.82
2022-08-17T02:48:47.780Z,8.23
2022-08-17T02:51:14.626Z,7.20
2022-08-17T02:53:41.348Z,7.85
2022-08-17T02:56:08.086Z,6.53
2022-08-17T02:58:36.099Z,6.85
2022-08-17T03:01:06.309Z,7.57
2022-08-17T03:03:33.410Z,6.78
2022-08-17T03:06:00.041Z,7.90
2022-08-17T03:08:27.285Z,9.02
2022-08-17T03:10:54.138Z,8.10
2022-08-17T03:13:20.832Z,8.83
2022-08-17T03:15:47.971Z,9.68
2022-08-17T03:18:24.486Z,7.53
2022-08-17T03:20:52.494Z,8.48
2022-08-17T03:23:19.117Z,9.68
2022-08-17T03:25:53.062Z,7.03
2022-08-17T03:28:20.570Z,7.53
2022-08-17T03:30:47.284Z,8.98
2022-08-17T03:33:14.177Z,7.60
2022-08-17T03:35:41.132Z,8.48
2022-08-17T03:38:10.143Z,9.10
2022-08-17T03:40:56.705Z,7.03
2022-08-17T03:43:24.059Z,7.97
2022-08-17T03:46:10.779Z,7.45
2022-08-17T03:49:12.612Z,7.13
2022-08-17T03:51:57.863Z,7.27
2022-08-17T03:54:43.207Z,8.10
2022-08-17T03:57:11.243Z,7.97
2022-08-17T03:59:39.105Z,8.02
2022-08-17T04:02:19.406Z,7.25
2022-08-17T04:04:46.626Z,7.83
2022-08-17T04:07:13.228Z,9.43
2022-08-17T04:09:39.836Z,7.70
2022-08-17T04:12:06.761Z,7.93
2022-08-17T04:14:53.347Z,7.93
2022-08-17T04:17:26.924Z,7.60
2022-08-17T04:19:54.704Z,8.63
2022-08-17T04:22:30.069Z,7.25
2022-08-17T04:25:01.202Z,9.27
2022-08-17T04:27:27.823Z,8.52
2022-08-17T04:29:55.955Z,7.33
2022-08-17T04:33:00.516Z,7.85
2022-08-17T04:35:10.729Z,8.23
2022-08-17T04:37:37.341Z,8.13
2022-08-17T04:40:27.147Z,9.10
2022-08-17T04:43:05.264Z,8.50
2022-08-17T04:45:32.545Z,8.77
2022-08-17T04:48:00.511Z,8.07
2022-08-17T04:50:27.640Z,8.65
2022-08-17T04:52:54.414Z,8.60
2022-08-17T04:55:21.385Z,7.63
2022-08-17T04:57:47.990Z,7.75
2022-08-17T05:00:14.846Z,8.38
2022-08-17T05:02:49.910Z,10.02
2022-08-17T05:05:22.320Z,8.73
2022-08-17T05:07:52.560Z,7.83
2022-08-17T05:10:20.055Z,8.40
2022-08-17T05:12:46.907Z,8.43
2022-08-17T05:15:16.162Z,8.25
2022-08-17T05:17:43.824Z,9.85
2022-08-17T05:20:10.859Z,8.03
2022-08-17T05:22:47.502Z,8.88
2022-08-17T05:25:14.486Z,8.43
2022-08-17T05:27:41.663Z,8.38
2022-08-17T05:30:10.147Z,9.93
2022-08-17T05:32:40.315Z,8.70
2022-08-17T05:35:07.647Z,8.02
2022-08-17T05:37:34.270Z,8.45
2022-08-17T05:40:00.988Z,9.27
2022-08-17T05:42:27.769Z,8.00
2022-08-17T05:44:57.790Z,8.97
2022-08-17T05:47:25.463Z,8.55
2022-08-17T05:49:53.772Z,9.52
2022-08-17T05:52:26.011Z,9.52
2022-08-17T05:55:01.300Z,9.07
2022-08-17T05:57:56.106Z,10.07
2022-08-17T06:00:30.813Z,10.30
2022-08-17T06:03:29.014Z,9.57
2022-08-17T06:06:13.774Z,9.23
2022-08-17T06:09:33.797Z,9.98
2022-08-17T06:12:20.080Z,10.50
2022-08-17T06:15:02.323Z,9.52
2022-08-17T06:17:29.631Z,9.57
2022-08-17T06:19:59.767Z,10.43
2022-08-17T06:22:28.767Z,10.05
2022-08-17T06:24:57.198Z,9.40
2022-08-17T06:27:37.326Z,10.77
2022-08-17T06:30:27.202Z,9.15
2022-08-17T06:32:56.234Z,9.48
2022-08-17T06:35:34.096Z,9.25
2022-08-17T06:38:37.098Z,10.17
2022-08-17T06:41:16.479Z,9.98
2022-08-17T06:43:48.811Z,10.10
2022-08-17T06:46:36.222Z,9.60
2022-08-17T06:49:08.937Z,10.38
2022-08-17T06:51:40.591Z,9.40
2022-08-17T06:54:28.529Z,11.25
2022-08-17T06:57:25.438Z,8.80
2022-08-17T07:00:07.575Z,10.93
2022-08-17T07:02:52.051Z,12.25
2022-08-17T07:05:22.822Z,11.03
2022-08-17T07:08:07.927Z,10.40
2022-08-17T07:10:38.317Z,11.52
2022-08-17T07:13:42.172Z,10.38
2022-08-17T07:16:22.231Z,9.80
2022-08-17T07:18:51.211Z,10.73
2022-08-17T07:21:26.764Z,11.07
2022-08-17T07:24:30.747Z,9.50
2022-08-17T07:27:27.495Z,10.40
2022-08-17T07:30:11.442Z,9.80
2022-08-17T07:32:48.043Z,9.70
2022-08-17T07:35:40.775Z,11.65
2022-08-17T07:38:28.978Z,11.85
2022-08-17T07:41:01.133Z,11.52
2022-08-17T07:43:31.186Z,9.68
2022-08-17T07:46:19.246Z,12.53
2022-08-17T07:48:49.811Z,9.93
2022-08-17T07:51:17.933Z,9.88
2022-08-17T07:53:45.361Z,8.90
2022-08-17T07:56:34.632Z,9.68
2022-08-17T07:59:30.007Z,11.27
2022-08-17T08:02:06.751Z,11.57
2022-08-17T08:05:02.285Z,9.98
2022-08-17T08:07:34.715Z,10.25
2022-08-17T08:10:15.257Z,10.73
2022-08-17T08:12:46.871Z,10.63
2022-08-17T08:15:18.673Z,10.65
2022-08-17T08:17:52.587Z,10.18
2022-08-17T08:20:51.833Z,10.98
2022-08-17T08:23:39.552Z,12.27
2022-08-17T08:26:26.445Z,9.37
2022-08-17T08:29:15.383Z,11.73
2022-08-17T08:31:46.572Z,9.10
2022-08-17T08:34:58.678Z,11.00
2022-08-17T08:38:01.394Z,8.70
2022-08-17T08:40:40.142Z,8.33
2022-08-17T08:43:22.647Z,9.95
2022-08-17T08:46:07.654Z,8.90
2022-08-17T08:49:59.086Z,11.02
2022-08-17T08:52:25.713Z,9.85
2022-08-17T08:55:07.616Z,9.60
2022-08-17T08:57:38.814Z,8.75
2022-08-17T09:00:17.490Z,10.52
2022-08-17T09:03:03.046Z,10.18
2022-08-17T09:06:06.858Z,9.45
2022-08-17T09:09:07.025Z,9.93
2022-08-17T09:12:02.543Z,9.90
2022-08-17T09:14:46.900Z,8.55
2022-08-17T09:17:22.191Z,10.23
2022-08-17T09:19:54.720Z,8.50
2022-08-17T09:22:37.304Z,11.40
2022-08-17T09:25:11.245Z,9.93
2022-08-17T09:28:00.950Z,9.80
2022-08-17T09:30:36.244Z,9.35
2022-08-17T09:33:22.926Z,9.32
2022-08-17T09:36:12.270Z,9.03
2022-08-17T09:39:00.220Z,8.15
2022-08-17T09:41:49.304Z,10.27
2022-08-17T09:44:27.277Z,8.48
2022-08-17T09:46:59.354Z,7.40
2022-08-17T09:49:38.574Z,11.90
2022-08-17T09:52:14.711Z,8.85
2022-08-17T09:54:45.286Z,9.20
2022-08-17T09:57:49.369Z,7.45
2022-08-17T10:00:23.759Z,8.75
2022-08-17T10:03:28.281Z,7.00
2022-08-17T10:06:10.860Z,7.20
2022-08-17T10:09:06.460Z,8.38
2022-08-17T10:11:55.292Z,7.50
2022-08-17T10:14:43.766Z,8.10
2022-08-17T10:17:23.231Z,7.63
2022-08-17T10:20:27.515Z,8.82
2022-08-17T10:23:19.687Z,7.25
2022-08-17T10:26:08.925Z,7.40
2022-08-17T10:28:59.664Z,7.63
2022-08-17T10:31:38.665Z,7.03
2022-08-17T10:34:05.220Z,7.70
2022-08-17T10:36:34.609Z,7.25
2022-08-17T10:39:19.827Z,6.45
2022-08-17T10:41:50.459Z,9.10
2022-08-17T10:44:45.696Z,6.83
2022-08-17T10:47:15.390Z,6.55
2022-08-17T10:49:47.943Z,6.55
2022-08-17T10:52:20.438Z,6.68
2022-08-17T10:54:48.792Z,6.50
2022-08-17T10:57:27.404Z,7.13
2022-08-17T10:59:55.854Z,6.82
2022-08-17T11:02:23.162Z,6.57
2022-08-17T11:05:07.990Z,8.57
2022-08-17T11:07:58.530Z,6.28
2022-08-17T11:10:46.419Z,6.47
2022-08-17T11:13:33.686Z,7.07
2022-08-17T11:16:28.079Z,6.43
2022-08-17T11:19:25.169Z,6.90
2022-08-17T11:22:33.356Z,6.63
2022-08-17T11:25:14.370Z,7.37
2022-08-17T11:27:42.332Z,7.18
2022-08-17T11:30:13.249Z,6.35
2022-08-17T11:32:54.323Z,6.47
2022-08-17T11:35:21.445Z,6.65
2022-08-17T11:37:53.689Z,7.27
2022-08-17T11:40:46.509Z,8.07
2022-08-17T11:43:31.012Z,6.30
2022-08-17T11:46:16.040Z,6.75
2022-08-17T11:49:03.031Z,8.20
2022-08-17T11:51:59.413Z,6.30
2022-08-17T11:54:33.781Z,7.60
2022-08-17T11:57:21.506Z,5.68
2022-08-17T11:59:48.076Z,7.25
2022-08-17T12:02:32.998Z,6.95
2022-08-17T12:05:14.512Z,6.87
2022-08-17T12:07:48.245Z,6.70
2022-08-17T12:10:18.352Z,5.68
2022-08-17T12:12:45.946Z,6.68
2022-08-17T12:15:27.650Z,6.70
2022-08-17T12:17:56.733Z,5.10
2022-08-17T12:20:32.610Z,5.55
2022-08-17T12:23:17.282Z,5.75
2022-08-17T12:26:07.243Z,7.88
2022-08-17T12:28:36.163Z,6.13
2022-08-17T12:31:06.384Z,5.70
2022-08-17T12:33:33.579Z,6.55
2022-08-17T12:36:03.510Z,6.72
2022-08-17T12:38:34.483Z,7.22
2022-08-17T12:41:23.661Z,8.35
2022-08-17T12:44:14.907Z,6.33
2022-08-17T12:46:55.530Z,6.40
2022-08-17T12:49:29.638Z,6.65
2022-08-17T12:52:06.640Z,6.35
2022-08-17T12:54:51.420Z,5.45
2022-08-17T12:57:24.670Z,8.43
2022-08-17T13:00:16.293Z,5.65
2022-08-17T13:02:46.866Z,7.18
2022-08-17T13:05:27.719Z,6.25
2022-08-17T13:07:56.159Z,6.45
2022-08-17T13:10:33.085Z,10.47
2022-08-17T13:13:05.934Z,6.05
2022-08-17T13:15:44.824Z,7.85
2022-08-17T13:18:30.140Z,7.03
2022-08-17T13:20:58.985Z,8.73
2022-08-17T13:23:29.245Z,7.67
2022-08-17T13:25:58.561Z,7.15
2022-08-17T13:28:30.745Z,8.45
2022-08-17T13:31:24.142Z,13.32
2022-08-17T13:33:50.922Z,13.95
2022-08-17T13:36:30.204Z,14.77
2022-08-17T13:39:26.235Z,10.98
2022-08-17T13:41:56.058Z,16.85
2022-08-17T13:44:39.247Z,13.52
2022-08-17T13:47:16.515Z,13.95
2022-08-17T13:49:48.723Z,16.37
2022-08-17T13:52:37.963Z,24.83
2022-08-17T13:55:17.280Z,18.30
2022-08-17T13:57:48.610Z,19.98
2022-08-17T14:00:31.667Z,15.85
2022-08-17T14:03:00.050Z,14.50
2022-08-17T14:05:26.948Z,11.60
2022-08-17T14:07:59.026Z,15.48
2022-08-17T14:10:26.861Z,15.95
2022-08-17T14:12:53.610Z,17.05
2022-08-17T14:15:22.626Z,15.03
2022-08-17T14:17:49.705Z,16.67
2022-08-17T14:20:19.418Z,10.05
2022-08-17T14:22:49.546Z,14.95
2022-08-17T14:25:23.130Z,10.50
2022-08-17T14:27:53.686Z,9.00
2022-08-17T14:30:26.724Z,9.40
2022-08-17T14:32:56.432Z,7.90
2022-08-17T14:35:24.384Z,6.85
2022-08-17T14:37:52.160Z,11.82
2022-08-17T14:40:20.858Z,6.70
2022-08-17T14:42:48.087Z,7.60
2022-08-17T14:45:30.368Z,6.32
2022-08-17T14:48:01.036Z,8.65
2022-08-17T14:50:27.622Z,6.40
2022-08-17T14:52:56.049Z,7.20
2022-08-17T14:55:24.964Z,6.53
2022-08-17T14:57:51.761Z,8.57
2022-08-17T15:00:18.809Z,6.35
2022-08-17T15:02:58.327Z,6.90
2022-08-17T15:05:28.370Z,9.30
2022-08-17T15:07:55.791Z,6.18
2022-08-17T15:10:23.398Z,6.55
2022-08-17T15:12:51.330Z,8.93
2022-08-17T15:15:18.078Z,6.43
2022-08-17T15:17:45.901Z,8.40
2022-08-17T15:20:19.459Z,8.15
2022-08-17T15:22:49.716Z,7.57
2022-08-17T15:25:17.632Z,7.43
2022-08-17T15:27:44.350Z,7.50
2022-08-17T15:30:11.790Z,9.03
2022-08-17T15:32:40.634Z,7.38
2022-08-17T15:35:09.181Z,7.00
2022-08-17T15:37:37.401Z,6.00
2022-08-17T15:40:05.437Z,6.60
2022-08-17T15:42:32.419Z,7.23
2022-08-17T15:44:59.915Z,6.50
2022-08-17T15:47:26.566Z,8.35
2022-08-17T15:49:57.969Z,6.97
2022-08-17T15:52:28.406Z,8.80
2022-08-17T15:55:00.535Z,7.20
2022-08-17T15:57:27.792Z,6.38
2022-08-17T15:59:58.938Z,6.20
2022-08-17T16:03:44.544Z,7.50
2022-08-17T16:05:24.971Z,6.80
2022-08-17T16:07:52.599Z,7.57
2022-08-17T16:10:19.881Z,6.60
2022-08-17T16:12:47.971Z,7.03
2022-08-17T16:15:15.432Z,5.88
2022-08-17T16:17:42.349Z,6.55
2022-08-17T16:20:10.463Z,6.10
2022-08-17T16:22:47.765Z,6.53
2022-08-17T16:25:19.561Z,8.77
2022-08-17T16:27:48.746Z,6.63
2022-08-17T16:30:17.597Z,7.43
2022-08-17T16:32:46.241Z,7.57
2022-08-17T16:35:17.415Z,7.07
2022-08-17T16:37:45.677Z,7.63
2022-08-17T16:40:14.067Z,7.68
2022-08-17T16:42:42.846Z,7.30
2022-08-17T16:45:13.177Z,8.07
2022-08-17T16:47:41.179Z,7.60
2022-08-17T16:50:09.122Z,6.65
2022-08-17T16:52:36.566Z,8.32
2022-08-17T16:55:04.560Z,7.03
2022-08-17T16:57:31.975Z,7.13
2022-08-17T16:59:58.722Z,7.80
2022-08-17T17:02:26.653Z,6.55
2022-08-17T17:05:13.959Z,6.78
2022-08-17T17:08:12.829Z,7.10
2022-08-17T17:10:43.736Z,9.43
2022-08-17T17:13:33.367Z,7.75
2022-08-17T17:16:15.177Z,6.80
2022-08-17T17:18:58.095Z,7.45
2022-08-17T17:21:32.894Z,7.55
2022-08-17T17:24:04.645Z,7.57
2022-08-17T17:26:45.653Z,7.78
2022-08-17T17:29:47.855Z,8.77
2022-08-17T17:32:31.030Z,7.53
2022-08-17T17:35:04.724Z,6.05
2022-08-17T17:37:34.012Z,6.80
2022-08-17T17:40:09.585Z,8.35
2022-08-17T17:42:40.004Z,6.45
2022-08-17T17:45:19.914Z,6.80
2022-08-17T17:47:46.903Z,7.40
2022-08-17T17:50:14.148Z,6.40
2022-08-17T17:52:47.300Z,7.30
2022-08-17T17:55:35.389Z,7.05
2022-08-17T17:58:20.756Z,6.57
2022-08-17T18:01:01.183Z,9.00
2022-08-17T18:03:53.860Z,7.30
2022-08-17T18:06:45.506Z,6.90
2022-08-17T18:09:24.013Z,6.53
2022-08-17T18:12:08.681Z,7.20
2022-08-17T18:15:03.900Z,8.80
2022-08-17T18:17:31.030Z,8.10
2022-08-17T18:19:57.687Z,8.05
2022-08-17T18:22:25.257Z,6.57
2022-08-17T18:24:56.151Z,9.15
2022-08-17T18:27:35.488Z,10.35
2022-08-17T18:30:24.089Z,8.07
2022-08-17T18:32:50.720Z,12.23
2022-08-17T18:35:21.400Z,8.32
2022-08-17T18:37:51.294Z,9.23
2022-08-17T18:40:18.467Z,6.25
2022-08-17T18:42:55.594Z,9.80
2022-08-17T18:45:43.804Z,7.82
2022-08-17T18:48:49.391Z,7.85
2022-08-17T18:51:40.573Z,7.95
2022-08-17T18:54:24.850Z,9.18
2022-08-17T18:56:57.429Z,7.80
2022-08-17T18:59:45.256Z,7.82
2022-08-17T19:02:20.731Z,7.35
2022-08-17T19:05:09.858Z,7.40
2022-08-17T19:07:47.185Z,6.55
2022-08-17T19:10:16.745Z,7.53
2022-08-17T19:13:00.242Z,7.22
2022-08-17T19:15:34.006Z,8.07
2022-08-17T19:18:15.463Z,9.20
2022-08-17T19:20:48.782Z,8.43
2022-08-17T19:23:31.570Z,8.43
2022-08-17T19:26:01.601Z,8.57
2022-08-17T19:28:48.003Z,8.18
2022-08-17T19:31:22.595Z,8.05
2022-08-17T19:33:49.438Z,7.32
2022-08-17T19:36:40.403Z,8.27
2022-08-17T19:39:38.347Z,7.70
2022-08-17T19:42:28.570Z,9.80
2022-08-17T19:45:46.494Z,7.50
2022-08-17T19:48:19.869Z,7.55
2022-08-17T19:50:56.613Z,7.10
2022-08-17T19:53:47.411Z,7.30
2022-08-17T19:56:42.139Z,8.38
2022-08-17T19:59:27.370Z,8.55
2022-08-17T20:02:32.862Z,7.30
2022-08-17T20:05:02.859Z,9.53
2022-08-17T20:07:57.050Z,8.40
2022-08-17T20:10:57.932Z,7.68
2022-08-17T20:13:34.091Z,8.48
2022-08-17T20:16:01.618Z,8.35
2022-08-17T20:18:37.672Z,9.33
2022-08-17T20:21:44.804Z,8.02
2022-08-17T20:24:19.014Z,8.95
2022-08-17T20:26:58.964Z,8.02
2022-08-17T20:29:51.514Z,7.13
2022-08-17T20:32:24.097Z,7.50
2022-08-17T20:35:04.279Z,8.77
2022-08-17T20:37:33.303Z,8.80
2022-08-17T20:39:59.907Z,9.45
2022-08-17T20:42:27.818Z,8.05
2022-08-17T20:45:01.675Z,7.23
2022-08-17T20:47:34.542Z,8.20
2022-08-17T20:50:04.478Z,8.70
2022-08-17T20:52:47.422Z,8.32
2022-08-17T20:55:52.332Z,8.15
2022-08-17T20:58:30.636Z,9.23
2022-08-17T21:00:58.617Z,14.25
2022-08-17T21:03:26.745Z,8.48
2022-08-17T21:06:00.223Z,8.38
2022-08-17T21:08:33.440Z,7.72
2022-08-17T21:11:21.541Z,9.70
2022-08-17T21:14:10.984Z,9.80
2022-08-17T21:17:05.857Z,7.28
2022-08-17T21:20:11.351Z,7.30
2022-08-17T21:22:58.542Z,7.88
2022-08-17T21:25:50.086Z,9.80
2022-08-17T21:28:23.124Z,7.40
2022-08-17T21:31:08.464Z,7.32
2022-08-17T21:33:39.593Z,8.98
2022-08-17T21:36:12.257Z,9.18
2022-08-17T21:38:47.804Z,9.93
2022-08-17T21:41:35.639Z,7.90
2022-08-17T21:44:13.274Z,11.43
2022-08-17T21:46:42.980Z,9.00
2022-08-17T21:49:16.817Z,9.77
2022-08-17T21:51:56.764Z,6.90
2022-08-17T21:54:33.932Z,8.05
2022-08-17T21:57:02.478Z,8.77
2022-08-17T21:59:32.944Z,8.88
2022-08-17T22:02:01.675Z,9.07
2022-08-17T22:04:37.942Z,8.63
2022-08-17T22:07:15.187Z,7.70
2022-08-17T22:09:46.940Z,8.68
2022-08-17T22:12:19.142Z,10.45
2022-08-17T22:14:56.084Z,8.60
2022-08-17T22:17:40.040Z,7.93
2022-08-17T22:20:14.433Z,9.02
2022-08-17T22:23:08.673Z,9.25
2022-08-17T22:25:38.310Z,10.95
2022-08-17T22:28:08.062Z,8.20
2022-08-17T22:30:41.653Z,8.40
2022-08-17T22:33:32.882Z,9.43
2022-08-17T22:36:13.747Z,9.70
2022-08-17T22:38:41.926Z,9.70
2022-08-17T22:41:52.048Z,9.05
2022-08-17T22:44:29.548Z,8.50
2022-08-17T22:47:00.006Z,8.52
2022-08-17T22:49:53.767Z,9.02
2022-08-17T22:52:32.152Z,7.55
2022-08-17T22:55:35.153Z,12.20
2022-08-17T22:58:21.021Z,8.97
2022-08-17T23:00:49.124Z,8.90
2022-08-17T23:03:22.393Z,8.57
2022-08-17T23:06:10.643Z,9.02
2022-08-17T23:08:54.648Z,7.50
2022-08-17T23:11:42.921Z,8.97
2022-08-17T23:14:13.354Z,8.00
2022-08-17T23:16:43.528Z,8.88
2022-08-17T23:19:11.349Z,7.75
2022-08-17T23:21:38.039Z,7.68
2022-08-17T23:24:05.817Z,10.13
2022-08-17T23:26:39.226Z,9.32
2022-08-17T23:29:06.700Z,9.57
2022-08-17T23:31:37.256Z,8.30
2022-08-17T23:34:04.897Z,9.43
2022-08-17T23:36:34.678Z,8.97
2022-08-17T23:39:01.351Z,8.30
2022-08-17T23:41:31.907Z,9.48
2022-08-17T23:43:59.422Z,8.35
2022-08-17T23:46:26.047Z,8.68
2022-08-17T23:48:54.239Z,9.33
2022-08-17T23:51:24.169Z,9.13
2022-08-17T23:53:55.221Z,7.90
2022-08-17T23:56:26.096Z,11.07
2022-08-17T23:58:54.901Z,8.27
